sensor_id;sensor_type;location;lat;lon;timestamp;pressure;altitude;pressure_sealevel;temperature;humidity
45275;BME280;31019;43.780;25.948;2023-04-25T00:02:29;100339.66;;;12.50;100.00
45275;BME280;31019;43.780;25.948;2023-04-25T00:05:17;100343.41;;;12.84;100.00
45275;BME280;31019;43.780;25.948;2023-04-25T00:08:03;100345.03;;;12.97;100.00
45275;BME280;31019;43.780;25.948;2023-04-25T00:10:42;100341.56;;;12.97;100.00
45275;BME280;31019;43.780;25.948;2023-04-25T00:13:31;100334.25;;;13.04;100.00
45275;BME280;31019;43.780;25.948;2023-04-25T00:16:23;100342.84;;;13.06;100.00
45275;BME280;31019;43.780;25.948;2023-04-25T00:19:02;100347.13;;;13.07;100.00
45275;BME280;31019;43.780;25.948;2023-04-25T00:21:57;100333.81;;;12.95;100.00
45275;BME280;31019;43.780;25.948;2023-04-25T00:24:43;100340.66;;;13.03;100.00
45275;BME280;31019;43.780;25.948;2023-04-25T00:27:38;100336.25;;;13.09;100.00
45275;BME280;31019;43.780;25.948;2023-04-25T00:30:32;100326.56;;;12.60;100.00
45275;BME280;31019;43.780;25.948;2023-04-25T00:33:20;100339.69;;;12.86;100.00
45275;BME280;31019;43.780;25.948;2023-04-25T00:36:04;100331.69;;;12.86;100.00
45275;BME280;31019;43.780;25.948;2023-04-25T00:39:04;100328.03;;;12.98;100.00
45275;BME280;31019;43.780;25.948;2023-04-25T00:41:52;100321.53;;;13.06;100.00
45275;BME280;31019;43.780;25.948;2023-04-25T00:44:39;100304.84;;;13.11;100.00
45275;BME280;31019;43.780;25.948;2023-04-25T00:48:52;100305.19;;;13.02;100.00
45275;BME280;31019;43.780;25.948;2023-04-25T00:50:38;100308.78;;;13.08;100.00
45275;BME280;31019;43.780;25.948;2023-04-25T00:53:42;100303.91;;;12.93;100.00
45275;BME280;31019;43.780;25.948;2023-04-25T01:03:05;100296.03;;;12.98;100.00
45275;BME280;31019;43.780;25.948;2023-04-25T01:08:45;100281.53;;;12.94;100.00
45275;BME280;31019;43.780;25.948;2023-04-25T01:11:32;100279.34;;;13.03;100.00
45275;BME280;31019;43.780;25.948;2023-04-25T01:14:55;100277.13;;;13.00;100.00
45275;BME280;31019;43.780;25.948;2023-04-25T01:18:07;100257.19;;;13.02;100.00
45275;BME280;31019;43.780;25.948;2023-04-25T01:27:23;100244.56;;;12.98;100.00
45275;BME280;31019;43.780;25.948;2023-04-25T01:30:28;100217.94;;;12.86;100.00
45275;BME280;31019;43.780;25.948;2023-04-25T01:33:18;100218.50;;;12.88;100.00
45275;BME280;31019;43.780;25.948;2023-04-25T01:36:35;100224.66;;;12.77;100.00
45275;BME280;31019;43.780;25.948;2023-04-25T01:39:44;100204.72;;;12.68;100.00
45275;BME280;31019;43.780;25.948;2023-04-25T01:42:52;100217.81;;;12.69;100.00
45275;BME280;31019;43.780;25.948;2023-04-25T01:45:55;100219.09;;;12.67;100.00
45275;BME280;31019;43.780;25.948;2023-04-25T01:48:46;100208.19;;;12.45;100.00
45275;BME280;31019;43.780;25.948;2023-04-25T01:54:53;100197.31;;;12.58;100.00
45275;BME280;31019;43.780;25.948;2023-04-25T01:58:07;100205.06;;;12.59;100.00
45275;BME280;31019;43.780;25.948;2023-04-25T02:02:02;100195.44;;;12.58;100.00
45275;BME280;31019;43.780;25.948;2023-04-25T02:08:10;100190.91;;;12.71;100.00
45275;BME280;31019;43.780;25.948;2023-04-25T02:11:16;100183.84;;;12.65;100.00
45275;BME280;31019;43.780;25.948;2023-04-25T02:17:09;100181.31;;;12.46;100.00
45275;BME280;31019;43.780;25.948;2023-04-25T02:22:58;100187.44;;;12.70;100.00
45275;BME280;31019;43.780;25.948;2023-04-25T02:26:03;100181.31;;;12.58;100.00
45275;BME280;31019;43.780;25.948;2023-04-25T02:35:33;100174.50;;;12.62;100.00
45275;BME280;31019;43.780;25.948;2023-04-25T02:41:27;100182.13;;;12.58;100.00
45275;BME280;31019;43.780;25.948;2023-04-25T02:44:32;100168.94;;;12.52;100.00
45275;BME280;31019;43.780;25.948;2023-04-25T02:50:36;100161.88;;;12.57;100.00
45275;BME280;31019;43.780;25.948;2023-04-25T02:53:41;100169.84;;;12.46;100.00
45275;BME280;31019;43.780;25.948;2023-04-25T02:56:51;100159.19;;;12.46;100.00
45275;BME280;31019;43.780;25.948;2023-04-25T02:59:39;100163.97;;;12.44;100.00
45275;BME280;31019;43.780;25.948;2023-04-25T03:03:59;100150.66;;;12.32;100.00
45275;BME280;31019;43.780;25.948;2023-04-25T03:15:29;100172.50;;;12.22;100.00
45275;BME280;31019;43.780;25.948;2023-04-25T03:18:25;100167.41;;;12.21;100.00
45275;BME280;31019;43.780;25.948;2023-04-25T03:21:26;100181.88;;;12.25;100.00
45275;BME280;31019;43.780;25.948;2023-04-25T03:24:19;100170.75;;;12.16;100.00
45275;BME280;31019;43.780;25.948;2023-04-25T03:27:18;100181.19;;;12.29;100.00
45275;BME280;31019;43.780;25.948;2023-04-25T03:30:20;100183.75;;;12.36;100.00
45275;BME280;31019;43.780;25.948;2023-04-25T03:33:15;100176.53;;;12.13;100.00
45275;BME280;31019;43.780;25.948;2023-04-25T03:37:16;100187.88;;;12.08;100.00
45275;BME280;31019;43.780;25.948;2023-04-25T03:46:23;100173.06;;;12.12;100.00
45275;BME280;31019;43.780;25.948;2023-04-25T03:49:42;100181.16;;;12.06;100.00
45275;BME280;31019;43.780;25.948;2023-04-25T03:52:08;100184.06;;;12.04;100.00
45275;BME280;31019;43.780;25.948;2023-04-25T03:55:22;100184.06;;;12.04;100.00
45275;BME280;31019;43.780;25.948;2023-04-25T03:58:42;100175.84;;;12.18;100.00
45275;BME280;31019;43.780;25.948;2023-04-25T04:05:06;100181.50;;;12.09;100.00
45275;BME280;31019;43.780;25.948;2023-04-25T04:07:53;100178.97;;;12.14;100.00
45275;BME280;31019;43.780;25.948;2023-04-25T04:10:57;100191.13;;;12.10;100.00
45275;BME280;31019;43.780;25.948;2023-04-25T04:14:05;100181.41;;;12.04;100.00
45275;BME280;31019;43.780;25.948;2023-04-25T04:23:49;100183.72;;;12.12;100.00
45275;BME280;31019;43.780;25.948;2023-04-25T04:32:34;100188.22;;;12.12;100.00
45275;BME280;31019;43.780;25.948;2023-04-25T04:38:56;100184.63;;;12.06;100.00
45275;BME280;31019;43.780;25.948;2023-04-25T04:42:03;100173.41;;;12.04;100.00
45275;BME280;31019;43.780;25.948;2023-04-25T04:48:12;100181.28;;;12.11;100.00
45275;BME280;31019;43.780;25.948;2023-04-25T04:51:12;100192.16;;;12.09;100.00
45275;BME280;31019;43.780;25.948;2023-04-25T04:54:18;100188.22;;;12.12;100.00
45275;BME280;31019;43.780;25.948;2023-04-25T04:57:10;100184.97;;;11.98;100.00
45275;BME280;31019;43.780;25.948;2023-04-25T05:00:23;100180.47;;;11.99;100.00
45275;BME280;31019;43.780;25.948;2023-04-25T05:03:11;100177.81;;;11.99;100.00
45275;BME280;31019;43.780;25.948;2023-04-25T05:06:13;100180.59;;;12.15;100.00
45275;BME280;31019;43.780;25.948;2023-04-25T05:09:17;100187.56;;;12.17;100.00
45275;BME280;31019;43.780;25.948;2023-04-25T05:12:12;100184.97;;;12.10;100.00
45275;BME280;31019;43.780;25.948;2023-04-25T05:14:56;100170.06;;;12.09;100.00
45275;BME280;31019;43.780;25.948;2023-04-25T05:24:05;100163.47;;;12.11;100.00
45275;BME280;31019;43.780;25.948;2023-04-25T05:27:06;100178.97;;;12.14;100.00
45275;BME280;31019;43.780;25.948;2023-04-25T05:30:37;100169.94;;;12.15;100.00
45275;BME280;31019;43.780;25.948;2023-04-25T05:33:55;100173.09;;;12.24;100.00
45275;BME280;31019;43.780;25.948;2023-04-25T05:36:50;100180.59;;;12.27;100.00
45275;BME280;31019;43.780;25.948;2023-04-25T05:39:47;100177.50;;;12.30;100.00
45275;BME280;31019;43.780;25.948;2023-04-25T05:42:45;100175.75;;;12.36;100.00
45275;BME280;31019;43.780;25.948;2023-04-25T05:49:04;100182.41;;;12.03;100.00
45275;BME280;31019;43.780;25.948;2023-04-25T05:52:32;100190.78;;;12.19;100.00
45275;BME280;31019;43.780;25.948;2023-04-25T05:55:28;100184.19;;;12.21;100.00
45275;BME280;31019;43.780;25.948;2023-04-25T06:04:45;100191.00;;;12.05;100.00
45275;BME280;31019;43.780;25.948;2023-04-25T06:10:09;100194.72;;;12.04;100.00
45275;BME280;31019;43.780;25.948;2023-04-25T06:10:38;100188.50;;;12.46;100.00
45275;BME280;31019;43.780;25.948;2023-04-25T06:13:40;100184.63;;;11.76;100.00
45275;BME280;31019;43.780;25.948;2023-04-25T06:17:48;100195.50;;;12.05;100.00
45275;BME280;31019;43.780;25.948;2023-04-25T06:19:38;100200.03;;;12.04;100.00
45275;BME280;31019;43.780;25.948;2023-04-25T06:22:33;100181.41;;;12.04;100.00
45275;BME280;31019;43.780;25.948;2023-04-25T06:25:28;100191.63;;;12.54;100.00
45275;BME280;31019;43.780;25.948;2023-04-25T06:28:26;100178.91;;;12.68;100.00
45275;BME280;31019;43.780;25.948;2023-04-25T06:31:29;100167.31;;;12.51;100.00
45275;BME280;31019;43.780;25.948;2023-04-25T06:34:24;100167.66;;;12.78;100.00
45275;BME280;31019;43.780;25.948;2023-04-25T06:40:42;100185.72;;;12.76;100.00
45275;BME280;31019;43.780;25.948;2023-04-25T06:43:25;100184.91;;;12.52;100.00
45275;BME280;31019;43.780;25.948;2023-04-25T06:46:22;100185.72;;;12.64;100.00
45275;BME280;31019;43.780;25.948;2023-04-25T06:49:21;100188.94;;;13.13;100.00
45275;BME280;31019;43.780;25.948;2023-04-25T06:58:41;100193.22;;;12.91;100.00
45275;BME280;31019;43.780;25.948;2023-04-25T07:01:32;100181.31;;;12.81;100.00
45275;BME280;31019;43.780;25.948;2023-04-25T07:04:52;100182.22;;;13.11;100.00
45275;BME280;31019;43.780;25.948;2023-04-25T07:07:38;100179.06;;;13.25;100.00
45275;BME280;31019;43.780;25.948;2023-04-25T07:10:31;100185.69;;;13.11;100.00
45275;BME280;31019;43.780;25.948;2023-04-25T07:13:45;100188.03;;;13.48;100.00
45275;BME280;31019;43.780;25.948;2023-04-25T07:16:44;100186.91;;;13.44;100.00
45275;BME280;31019;43.780;25.948;2023-04-25T07:19:24;100182.88;;;13.29;100.00
45275;BME280;31019;43.780;25.948;2023-04-25T07:22:09;100180.31;;;13.23;100.00
45275;BME280;31019;43.780;25.948;2023-04-25T07:25:01;100185.19;;;13.38;100.00
45275;BME280;31019;43.780;25.948;2023-04-25T07:27:52;100190.50;;;13.38;100.00
45275;BME280;31019;43.780;25.948;2023-04-25T07:31:02;100175.47;;;13.32;100.00
45275;BME280;31019;43.780;25.948;2023-04-25T07:34:04;100178.63;;;13.45;100.00
45275;BME280;31019;43.780;25.948;2023-04-25T07:37:28;100168.88;;;13.51;100.00
45275;BME280;31019;43.780;25.948;2023-04-25T07:40:43;100173.59;;;13.32;100.00
45275;BME280;31019;43.780;25.948;2023-04-25T07:43:42;100177.31;;;13.60;100.00
45275;BME280;31019;43.780;25.948;2023-04-25T07:46:50;100188.28;;;13.46;100.00
45275;BME280;31019;43.780;25.948;2023-04-25T07:50:02;100172.97;;;13.70;100.00
45275;BME280;31019;43.780;25.948;2023-04-25T07:52:51;100160.38;;;13.83;100.00
45275;BME280;31019;43.780;25.948;2023-04-25T08:05:21;100165.25;;;14.19;100.00
45275;BME280;31019;43.780;25.948;2023-04-25T08:08:25;100161.69;;;13.80;100.00
45275;BME280;31019;43.780;25.948;2023-04-25T08:14:21;100166.38;;;14.57;100.00
45275;BME280;31019;43.780;25.948;2023-04-25T08:23:37;100164.69;;;15.12;100.00
45275;BME280;31019;43.780;25.948;2023-04-25T08:29:18;100171.16;;;15.38;100.00
45275;BME280;31019;43.780;25.948;2023-04-25T08:32:08;100189.63;;;15.62;100.00
45275;BME280;31019;43.780;25.948;2023-04-25T08:35:24;100180.91;;;15.71;100.00
45275;BME280;31019;43.780;25.948;2023-04-25T08:38:25;100176.28;;;15.67;100.00
45275;BME280;31019;43.780;25.948;2023-04-25T08:47:32;100173.53;;;15.34;100.00
45275;BME280;31019;43.780;25.948;2023-04-25T08:48:23;100174.75;;;15.49;100.00
45275;BME280;31019;43.780;25.948;2023-04-25T08:51:39;100167.03;;;15.52;100.00
45275;BME280;31019;43.780;25.948;2023-04-25T08:54:35;100175.97;;;15.63;100.00
45275;BME280;31019;43.780;25.948;2023-04-25T08:57:40;100171.97;;;15.39;100.00
45275;BME280;31019;43.780;25.948;2023-04-25T09:03:50;100159.09;;;15.63;100.00
45275;BME280;31019;43.780;25.948;2023-04-25T09:09:37;100176.53;;;16.24;100.00
45275;BME280;31019;43.780;25.948;2023-04-25T09:15:50;100168.41;;;16.94;100.00
45275;BME280;31019;43.780;25.948;2023-04-25T09:21:44;100149.09;;;18.26;100.00
45275;BME280;31019;43.780;25.948;2023-04-25T09:29:11;100143.91;;;18.81;100.00
45275;BME280;31019;43.780;25.948;2023-04-25T09:45:41;100126.06;;;19.55;100.00
45275;BME280;31019;43.780;25.948;2023-04-25T09:50:32;100121.94;;;19.68;100.00
45275;BME280;31019;43.780;25.948;2023-04-25T09:54:38;100117.97;;;19.95;100.00
45275;BME280;31019;43.780;25.948;2023-04-25T09:56:21;100114.06;;;20.06;100.00
45275;BME280;31019;43.780;25.948;2023-04-25T10:02:06;100117.25;;;20.90;100.00
45275;BME280;31019;43.780;25.948;2023-04-25T10:05:02;100117.06;;;20.04;100.00
45275;BME280;31019;43.780;25.948;2023-04-25T10:07:37;100120.28;;;18.73;100.00
45275;BME280;31019;43.780;25.948;2023-04-25T10:10:33;100104.72;;;19.98;100.00
45275;BME280;31019;43.780;25.948;2023-04-25T10:16:50;100097.09;;;20.64;100.00
45275;BME280;31019;43.780;25.948;2023-04-25T10:19:55;100089.66;;;20.74;100.00
45275;BME280;31019;43.780;25.948;2023-04-25T10:22:57;100092.53;;;19.72;100.00
45275;BME280;31019;43.780;25.948;2023-04-25T10:26:10;100080.28;;;21.99;100.00
45275;BME280;31019;43.780;25.948;2023-04-25T10:29:28;100087.06;;;21.96;100.00
45275;BME280;31019;43.780;25.948;2023-04-25T10:32:28;100099.53;;;20.07;100.00
45275;BME280;31019;43.780;25.948;2023-04-25T10:35:31;100100.31;;;19.78;100.00
45275;BME280;31019;43.780;25.948;2023-04-25T10:38:35;100105.97;;;18.72;100.00
45275;BME280;31019;43.780;25.948;2023-04-25T10:41:28;100095.44;;;18.91;100.00
45275;BME280;31019;43.780;25.948;2023-04-25T10:47:17;100102.63;;;19.06;100.00
45275;BME280;31019;43.780;25.948;2023-04-25T11:00:22;100102.06;;;17.57;100.00
45275;BME280;31019;43.780;25.948;2023-04-25T11:03:23;100091.38;;;17.98;100.00
45275;BME280;31019;43.780;25.948;2023-04-25T11:07:10;100094.31;;;17.92;100.00
45275;BME280;31019;43.780;25.948;2023-04-25T11:16:44;100073.06;;;17.75;100.00
45275;BME280;31019;43.780;25.948;2023-04-25T11:22:54;100076.81;;;17.69;100.00
45275;BME280;31019;43.780;25.948;2023-04-25T11:25:56;100085.16;;;17.72;100.00
45275;BME280;31019;43.780;25.948;2023-04-25T11:32:17;100062.56;;;17.22;100.00
45275;BME280;31019;43.780;25.948;2023-04-25T11:35:24;100078.69;;;17.48;100.00
45275;BME280;31019;43.780;25.948;2023-04-25T11:38:13;100088.47;;;16.91;100.00
45275;BME280;31019;43.780;25.948;2023-04-25T11:40:57;100100.69;;;16.66;100.00
45275;BME280;31019;43.780;25.948;2023-04-25T11:43:56;100076.38;;;16.31;100.00
45275;BME280;31019;43.780;25.948;2023-04-25T11:47:01;100100.84;;;15.70;100.00
45275;BME280;31019;43.780;25.948;2023-04-25T11:53:50;100095.16;;;15.66;100.00
45275;BME280;31019;43.780;25.948;2023-04-25T11:56:31;100073.47;;;15.95;100.00
45275;BME280;31019;43.780;25.948;2023-04-25T11:59:38;100069.78;;;16.01;100.00
45275;BME280;31019;43.780;25.948;2023-04-25T12:02:43;100074.03;;;17.02;100.00
45275;BME280;31019;43.780;25.948;2023-04-25T12:05:53;100070.34;;;17.24;100.00
45275;BME280;31019;43.780;25.948;2023-04-25T12:12:31;100069.47;;;16.98;100.00
45275;BME280;31019;43.780;25.948;2023-04-25T12:15:30;100046.19;;;17.13;100.00
45275;BME280;31019;43.780;25.948;2023-04-25T12:18:44;100032.44;;;17.00;100.00
45275;BME280;31019;43.780;25.948;2023-04-25T12:21:41;100045.88;;;16.94;100.00
45275;BME280;31019;43.780;25.948;2023-04-25T12:25:33;100031.97;;;17.28;100.00
45275;BME280;31019;43.780;25.948;2023-04-25T12:38:16;100009.72;;;19.19;100.00
45275;BME280;31019;43.780;25.948;2023-04-25T12:41:47;100009.59;;;18.95;100.00
45275;BME280;31019;43.780;25.948;2023-04-25T12:44:18;100003.84;;;19.46;100.00
45275;BME280;31019;43.780;25.948;2023-04-25T12:49:58;99996.25;;;17.99;100.00
45275;BME280;31019;43.780;25.948;2023-04-25T12:52:48;99983.38;;;19.11;100.00
45275;BME280;31019;43.780;25.948;2023-04-25T12:59:44;99983.91;;;19.47;100.00
45275;BME280;31019;43.780;25.948;2023-04-25T13:02:36;99981.81;;;18.55;100.00
45275;BME280;31019;43.780;25.948;2023-04-25T13:05:33;99971.28;;;19.42;100.00
45275;BME280;31019;43.780;25.948;2023-04-25T13:08:28;99961.31;;;19.09;100.00
45275;BME280;31019;43.780;25.948;2023-04-25T13:11:19;99955.63;;;20.89;100.00
45275;BME280;31019;43.780;25.948;2023-04-25T13:14:18;99969.94;;;19.74;100.00
45275;BME280;31019;43.780;25.948;2023-04-25T13:17:15;99951.16;;;20.98;100.00
45275;BME280;31019;43.780;25.948;2023-04-25T13:20:05;99958.91;;;20.67;100.00
45275;BME280;31019;43.780;25.948;2023-04-25T13:22:54;99958.88;;;20.24;100.00
45275;BME280;31019;43.780;25.948;2023-04-25T13:35:08;99980.56;;;20.99;100.00
45275;BME280;31019;43.780;25.948;2023-04-25T13:41:39;99976.78;;;19.27;100.00
45275;BME280;31019;43.780;25.948;2023-04-25T13:44:26;99994.22;;;19.01;100.00
45275;BME280;31019;43.780;25.948;2023-04-25T13:47:15;99976.63;;;19.18;100.00
45275;BME280;31019;43.780;25.948;2023-04-25T13:50:02;99974.06;;;18.98;100.00
45275;BME280;31019;43.780;25.948;2023-04-25T13:53:11;99993.88;;;19.47;100.00
45275;BME280;31019;43.780;25.948;2023-04-25T13:59:03;99973.75;;;19.05;100.00
45275;BME280;31019;43.780;25.948;2023-04-25T14:02:23;99971.47;;;18.83;100.00
45275;BME280;31019;43.780;25.948;2023-04-25T14:11:45;99957.94;;;18.93;100.00
45275;BME280;31019;43.780;25.948;2023-04-25T14:14:53;99961.41;;;18.98;100.00
45275;BME280;31019;43.780;25.948;2023-04-25T14:21:14;99948.03;;;20.53;100.00
45275;BME280;31019;43.780;25.948;2023-04-25T14:23:52;99950.91;;;19.60;100.00
45275;BME280;31019;43.780;25.948;2023-04-25T14:27:07;99948.91;;;19.47;100.00
45275;BME280;31019;43.780;25.948;2023-04-25T14:33:10;99954.56;;;18.77;100.00
45275;BME280;31019;43.780;25.948;2023-04-25T14:46:22;99944.94;;;18.01;100.00
45275;BME280;31019;43.780;25.948;2023-04-25T14:49:13;99933.28;;;18.21;100.00
45275;BME280;31019;43.780;25.948;2023-04-25T14:52:31;99966.75;;;17.53;100.00
45275;BME280;31019;43.780;25.948;2023-04-25T14:55:55;99986.09;;;17.40;100.00
45275;BME280;31019;43.780;25.948;2023-04-25T14:58:49;100002.94;;;16.26;100.00
45275;BME280;31019;43.780;25.948;2023-04-25T15:01:56;100013.63;;;15.79;100.00
45275;BME280;31019;43.780;25.948;2023-04-25T15:07:48;100052.63;;;14.88;100.00
45275;BME280;31019;43.780;25.948;2023-04-25T15:10:56;100036.91;;;14.48;100.00
45275;BME280;31019;43.780;25.948;2023-04-25T15:13:49;100043.44;;;14.79;100.00
45275;BME280;31019;43.780;25.948;2023-04-25T15:19:52;100043.41;;;13.46;100.00
45275;BME280;31019;43.780;25.948;2023-04-25T15:23:02;100053.03;;;13.47;100.00
45275;BME280;31019;43.780;25.948;2023-04-25T15:26:04;100047.63;;;13.13;100.00
45275;BME280;31019;43.780;25.948;2023-04-25T15:28:37;100044.31;;;12.94;100.00
45275;BME280;31019;43.780;25.948;2023-04-25T15:31:32;100037.78;;;12.73;100.00
45275;BME280;31019;43.780;25.948;2023-04-25T15:34:25;100043.22;;;12.78;100.00
45275;BME280;31019;43.780;25.948;2023-04-25T15:37:23;100042.28;;;12.73;100.00
45275;BME280;31019;43.780;25.948;2023-04-25T15:40:30;100028.84;;;12.27;100.00
45275;BME280;31019;43.780;25.948;2023-04-25T15:44:10;100028.91;;;12.56;100.00
45275;BME280;31019;43.780;25.948;2023-04-25T15:46:52;100016.44;;;12.33;100.00
45275;BME280;31019;43.780;25.948;2023-04-25T15:49:37;100023.63;;;12.44;100.00
45275;BME280;31019;43.780;25.948;2023-04-25T15:52:40;100025.88;;;12.64;100.00
45275;BME280;31019;43.780;25.948;2023-04-25T15:58:31;100024.09;;;12.41;100.00
45275;BME280;31019;43.780;25.948;2023-04-25T16:02:42;100040.72;;;12.60;100.00
45275;BME280;31019;43.780;25.948;2023-04-25T16:07:59;100019.88;;;12.57;100.00
45275;BME280;31019;43.780;25.948;2023-04-25T16:10:47;100030.81;;;12.84;100.00
45275;BME280;31019;43.780;25.948;2023-04-25T16:13:36;100024.81;;;13.05;100.00
45275;BME280;31019;43.780;25.948;2023-04-25T16:19:39;100020.22;;;13.18;100.00
45275;BME280;31019;43.780;25.948;2023-04-25T16:22:29;100028.50;;;13.33;100.00
45275;BME280;31019;43.780;25.948;2023-04-25T16:31:50;100011.06;;;13.25;100.00
45275;BME280;31019;43.780;25.948;2023-04-25T16:34:39;100011.94;;;13.31;100.00
45275;BME280;31019;43.780;25.948;2023-04-25T16:37:17;100016.56;;;13.36;100.00
45275;BME280;31019;43.780;25.948;2023-04-25T16:40:16;100016.09;;;13.10;100.00
45275;BME280;31019;43.780;25.948;2023-04-25T16:43:32;100003.69;;;13.04;100.00
45275;BME280;31019;43.780;25.948;2023-04-25T16:46:46;100008.09;;;13.10;100.00
45275;BME280;31019;43.780;25.948;2023-04-25T16:49:52;100022.19;;;12.94;100.00
45275;BME280;31019;43.780;25.948;2023-04-25T16:52:36;100020.59;;;13.10;100.00
45275;BME280;31019;43.780;25.948;2023-04-25T16:55:22;100026.09;;;13.03;100.00
45275;BME280;31019;43.780;25.948;2023-04-25T16:58:08;100009.28;;;12.74;100.00
45275;BME280;31019;43.780;25.948;2023-04-25T17:07:17;100024.53;;;12.50;100.00
45275;BME280;31019;43.780;25.948;2023-04-25T17:10:32;100030.41;;;12.52;100.00
45275;BME280;31019;43.780;25.948;2023-04-25T17:13:28;100043.75;;;12.40;100.00
45275;BME280;31019;43.780;25.948;2023-04-25T17:16:32;100043.66;;;12.23;100.00
45275;BME280;31019;43.780;25.948;2023-04-25T17:19:31;100037.88;;;12.38;100.00
45275;BME280;31019;43.780;25.948;2023-04-25T17:28:56;100055.25;;;11.94;100.00
45275;BME280;31019;43.780;25.948;2023-04-25T17:32:17;100062.19;;;11.95;100.00
45275;BME280;31019;43.780;25.948;2023-04-25T17:38:07;100064.16;;;11.87;100.00
45275;BME280;31019;43.780;25.948;2023-04-25T17:41:08;100061.63;;;11.93;100.00
45275;BME280;31019;43.780;25.948;2023-04-25T17:44:07;100058.59;;;11.89;100.00
45275;BME280;31019;43.780;25.948;2023-04-25T17:46:58;100075.00;;;11.86;100.00
45275;BME280;31019;43.780;25.948;2023-04-25T17:49:38;100090.53;;;12.12;100.00
45275;BME280;31019;43.780;25.948;2023-04-25T17:52:21;100080.03;;;12.18;100.00
45275;BME280;31019;43.780;25.948;2023-04-25T17:55:21;100091.34;;;12.25;100.00
45275;BME280;31019;43.780;25.948;2023-04-25T17:58:21;100099.94;;;12.27;100.00
45275;BME280;31019;43.780;25.948;2023-04-25T18:01:18;100102.91;;;11.95;100.00
45275;BME280;31019;43.780;25.948;2023-04-25T18:07:02;100115.31;;;12.01;100.00
45275;BME280;31019;43.780;25.948;2023-04-25T18:09:35;100105.94;;;11.99;100.00
45275;BME280;31019;43.780;25.948;2023-04-25T18:12:08;100117.38;;;11.99;100.00
45275;BME280;31019;43.780;25.948;2023-04-25T18:14:49;100117.38;;;11.99;100.00
45275;BME280;31019;43.780;25.948;2023-04-25T18:17:44;100106.97;;;11.98;100.00
45275;BME280;31019;43.780;25.948;2023-04-25T18:20:25;100115.28;;;11.89;100.00
45275;BME280;31019;43.780;25.948;2023-04-25T18:23:01;100112.69;;;11.83;100.00
45275;BME280;31019;43.780;25.948;2023-04-25T18:25:46;100124.00;;;11.66;100.00
45275;BME280;31019;43.780;25.948;2023-04-25T18:28:23;100120.09;;;11.39;100.00
45275;BME280;31019;43.780;25.948;2023-04-25T18:31:09;100126.25;;;11.51;100.00
45275;BME280;31019;43.780;25.948;2023-04-25T18:34:24;100120.09;;;11.39;100.00
45275;BME280;31019;43.780;25.948;2023-04-25T18:38:50;100127.66;;;11.54;100.00
45275;BME280;31019;43.780;25.948;2023-04-25T18:41:37;100119.84;;;11.40;100.00
45275;BME280;31019;43.780;25.948;2023-04-25T18:44:07;100122.16;;;11.37;100.00
45275;BME280;31019;43.780;25.948;2023-04-25T18:46:54;100135.41;;;11.55;100.00
45275;BME280;31019;43.780;25.948;2023-04-25T18:56:30;100139.84;;;11.13;100.00
45275;BME280;31019;43.780;25.948;2023-04-25T18:59:27;100144.00;;;11.09;100.00
45275;BME280;31019;43.780;25.948;2023-04-25T19:02:28;100133.44;;;11.02;100.00
45275;BME280;31019;43.780;25.948;2023-04-25T19:05:20;100149.09;;;10.92;100.00
45275;BME280;31019;43.780;25.948;2023-04-25T19:08:17;100140.38;;;10.66;100.00
45275;BME280;31019;43.780;25.948;2023-04-25T19:11:06;100155.13;;;10.62;100.00
45275;BME280;31019;43.780;25.948;2023-04-25T19:24:01;100135.34;;;10.95;100.00
45275;BME280;31019;43.780;25.948;2023-04-25T19:26:46;100130.88;;;10.95;100.00
45275;BME280;31019;43.780;25.948;2023-04-25T19:32:22;100140.63;;;11.02;100.00
45275;BME280;31019;43.780;25.948;2023-04-25T19:35:29;100148.00;;;10.81;100.00
45275;BME280;31019;43.780;25.948;2023-04-25T19:44:56;100139.66;;;10.96;100.00
45275;BME280;31019;43.780;25.948;2023-04-25T19:47:46;100135.44;;;10.88;100.00
45275;BME280;31019;43.780;25.948;2023-04-25T19:50:33;100130.13;;;10.88;100.00
45275;BME280;31019;43.780;25.948;2023-04-25T19:53:27;100137.66;;;10.91;100.00
45275;BME280;31019;43.780;25.948;2023-04-25T19:57:12;100131.25;;;10.81;100.00
45275;BME280;31019;43.780;25.948;2023-04-25T20:00:05;100121.78;;;10.85;100.00
45275;BME280;31019;43.780;25.948;2023-04-25T20:02:56;100113.66;;;10.80;100.00
45275;BME280;31019;43.780;25.948;2023-04-25T20:08:52;100122.91;;;10.95;100.00
45275;BME280;31019;43.780;25.948;2023-04-25T20:14:33;100120.09;;;10.90;100.00
45275;BME280;31019;43.780;25.948;2023-04-25T20:20:28;100122.50;;;11.10;100.00
45275;BME280;31019;43.780;25.948;2023-04-25T20:23:40;100114.28;;;11.30;100.00
45275;BME280;31019;43.780;25.948;2023-04-25T20:39:19;100091.69;;;10.91;100.00
45275;BME280;31019;43.780;25.948;2023-04-25T20:42:18;100107.09;;;11.00;100.00
45275;BME280;31019;43.780;25.948;2023-04-25T20:45:00;100090.41;;;10.93;100.00
45275;BME280;31019;43.780;25.948;2023-04-25T20:47:57;100104.06;;;10.97;100.00
45275;BME280;31019;43.780;25.948;2023-04-25T20:50:33;100096.19;;;10.90;100.00
45275;BME280;31019;43.780;25.948;2023-04-25T20:53:22;100100.91;;;10.88;100.00
45275;BME280;31019;43.780;25.948;2023-04-25T20:56:24;100092.34;;;10.86;100.00